sensor_id;sensor_type;location;lat;lon;timestamp;P1;durP1;ratioP1;P2;durP2;ratioP2
64595;SDS011;51003;51.628;6.670;2022-07-29T00:01:42;5.50;;;1.67;;
64595;SDS011;51003;51.628;6.670;2022-07-29T00:04:11;1.83;;;1.73;;
64595;SDS011;51003;51.628;6.670;2022-07-29T00:06:37;6.93;;;1.87;;
64595;SDS011;51003;51.628;6.670;2022-07-29T00:12:37;2.30;;;1.97;;
64595;SDS011;51003;51.628;6.670;2022-07-29T00:15:03;3.93;;;1.90;;
64595;SDS011;51003;51.628;6.670;2022-07-29T00:17:32;2.43;;;1.77;;
64595;SDS011;51003;51.628;6.670;2022-07-29T00:19:59;2.40;;;1.53;;
64595;SDS011;51003;51.628;6.670;2022-07-29T00:22:24;5.37;;;2.10;;
64595;SDS011;51003;51.628;6.670;2022-07-29T00:24:50;3.57;;;1.60;;
64595;SDS011;51003;51.628;6.670;2022-07-29T00:30:05;3.93;;;1.87;;
64595;SDS011;51003;51.628;6.670;2022-07-29T00:33:09;2.67;;;1.70;;
64595;SDS011;51003;51.628;6.670;2022-07-29T00:35:35;2.83;;;1.80;;
64595;SDS011;51003;51.628;6.670;2022-07-29T00:38:14;5.53;;;1.73;;
64595;SDS011;51003;51.628;6.670;2022-07-29T00:40:42;2.60;;;1.70;;
64595;SDS011;51003;51.628;6.670;2022-07-29T00:43:08;3.70;;;1.80;;
64595;SDS011;51003;51.628;6.670;2022-07-29T00:48:20;2.70;;;1.93;;
64595;SDS011;51003;51.628;6.670;2022-07-29T00:50:45;4.47;;;1.70;;
64595;SDS011;51003;51.628;6.670;2022-07-29T00:53:11;8.53;;;1.67;;
64595;SDS011;51003;51.628;6.670;2022-07-29T00:55:43;5.47;;;1.77;;
64595;SDS011;51003;51.628;6.670;2022-07-29T00:58:12;7.03;;;2.33;;
64595;SDS011;51003;51.628;6.670;2022-07-29T01:00:46;2.77;;;1.73;;
64595;SDS011;51003;51.628;6.670;2022-07-29T01:03:11;3.57;;;1.80;;
64595;SDS011;51003;51.628;6.670;2022-07-29T01:05:37;6.90;;;2.10;;
64595;SDS011;51003;51.628;6.670;2022-07-29T01:08:06;4.40;;;1.57;;
64595;SDS011;51003;51.628;6.670;2022-07-29T01:10:32;3.93;;;2.17;;
64595;SDS011;51003;51.628;6.670;2022-07-29T01:12:59;2.70;;;1.80;;
64595;SDS011;51003;51.628;6.670;2022-07-29T01:15:28;2.37;;;1.70;;
64595;SDS011;51003;51.628;6.670;2022-07-29T01:29:36;4.10;;;1.80;;
64595;SDS011;51003;51.628;6.670;2022-07-29T01:32:11;2.57;;;1.80;;
64595;SDS011;51003;51.628;6.670;2022-07-29T01:37:15;3.20;;;1.60;;
64595;SDS011;51003;51.628;6.670;2022-07-29T01:39:58;2.73;;;1.77;;
64595;SDS011;51003;51.628;6.670;2022-07-29T01:42:42;3.00;;;2.00;;
64595;SDS011;51003;51.628;6.670;2022-07-29T01:45:56;2.63;;;1.77;;
64595;SDS011;51003;51.628;6.670;2022-07-29T01:48:05;1.60;;;1.43;;
64595;SDS011;51003;51.628;6.670;2022-07-29T01:50:40;2.30;;;1.70;;
64595;SDS011;51003;51.628;6.670;2022-07-29T01:53:15;2.20;;;1.77;;
64595;SDS011;51003;51.628;6.670;2022-07-29T01:55:46;2.70;;;1.90;;
64595;SDS011;51003;51.628;6.670;2022-07-29T01:58:15;1.80;;;1.60;;
64595;SDS011;51003;51.628;6.670;2022-07-29T02:00:53;6.63;;;2.30;;
64595;SDS011;51003;51.628;6.670;2022-07-29T02:03:19;2.70;;;1.87;;
64595;SDS011;51003;51.628;6.670;2022-07-29T02:06:04;6.73;;;1.87;;
64595;SDS011;51003;51.628;6.670;2022-07-29T02:08:34;2.33;;;1.90;;
64595;SDS011;51003;51.628;6.670;2022-07-29T02:11:02;3.97;;;1.90;;
64595;SDS011;51003;51.628;6.670;2022-07-29T02:13:28;4.00;;;1.80;;
64595;SDS011;51003;51.628;6.670;2022-07-29T02:15:57;1.97;;;1.87;;
64595;SDS011;51003;51.628;6.670;2022-07-29T02:18:30;2.53;;;1.80;;
64595;SDS011;51003;51.628;6.670;2022-07-29T02:20:57;3.07;;;2.00;;
64595;SDS011;51003;51.628;6.670;2022-07-29T02:23:24;3.50;;;2.07;;
64595;SDS011;51003;51.628;6.670;2022-07-29T02:26:21;4.07;;;1.90;;
64595;SDS011;51003;51.628;6.670;2022-07-29T02:29:36;2.40;;;2.03;;
64595;SDS011;51003;51.628;6.670;2022-07-29T02:32:08;3.13;;;2.17;;
64595;SDS011;51003;51.628;6.670;2022-07-29T02:34:35;2.50;;;2.00;;
64595;SDS011;51003;51.628;6.670;2022-07-29T02:37:02;2.30;;;1.77;;
64595;SDS011;51003;51.628;6.670;2022-07-29T02:42:16;2.87;;;1.80;;
64595;SDS011;51003;51.628;6.670;2022-07-29T02:44:42;3.20;;;2.00;;
64595;SDS011;51003;51.628;6.670;2022-07-29T02:54:20;2.13;;;1.70;;
64595;SDS011;51003;51.628;6.670;2022-07-29T02:57:23;3.87;;;2.30;;
64595;SDS011;51003;51.628;6.670;2022-07-29T03:01:02;2.80;;;2.13;;
64595;SDS011;51003;51.628;6.670;2022-07-29T03:04:14;10.43;;;2.00;;
64595;SDS011;51003;51.628;6.670;2022-07-29T03:16:47;3.30;;;2.40;;
64595;SDS011;51003;51.628;6.670;2022-07-29T03:22:42;3.93;;;2.20;;
64595;SDS011;51003;51.628;6.670;2022-07-29T03:25:09;2.50;;;2.30;;
64595;SDS011;51003;51.628;6.670;2022-07-29T03:27:38;2.90;;;2.30;;
64595;SDS011;51003;51.628;6.670;2022-07-29T03:30:04;6.77;;;2.53;;
64595;SDS011;51003;51.628;6.670;2022-07-29T03:32:31;6.33;;;2.30;;
64595;SDS011;51003;51.628;6.670;2022-07-29T03:34:56;4.63;;;2.57;;
64595;SDS011;51003;51.628;6.670;2022-07-29T03:37:21;2.90;;;2.57;;
64595;SDS011;51003;51.628;6.670;2022-07-29T03:39:47;4.57;;;3.03;;
64595;SDS011;51003;51.628;6.670;2022-07-29T03:42:18;3.00;;;2.70;;
64595;SDS011;51003;51.628;6.670;2022-07-29T03:44:45;4.00;;;2.63;;
64595;SDS011;51003;51.628;6.670;2022-07-29T03:47:13;5.53;;;2.70;;
64595;SDS011;51003;51.628;6.670;2022-07-29T03:49:40;3.53;;;2.47;;
64595;SDS011;51003;51.628;6.670;2022-07-29T03:52:06;3.27;;;2.53;;
64595;SDS011;51003;51.628;6.670;2022-07-29T03:54:31;4.80;;;2.77;;
64595;SDS011;51003;51.628;6.670;2022-07-29T03:56:57;3.33;;;2.80;;
64595;SDS011;51003;51.628;6.670;2022-07-29T03:59:24;2.90;;;2.70;;
64595;SDS011;51003;51.628;6.670;2022-07-29T04:01:51;6.80;;;3.17;;
64595;SDS011;51003;51.628;6.670;2022-07-29T04:04:38;5.27;;;3.10;;
64595;SDS011;51003;51.628;6.670;2022-07-29T04:07:03;3.30;;;3.00;;
64595;SDS011;51003;51.628;6.670;2022-07-29T04:09:29;4.67;;;3.30;;
64595;SDS011;51003;51.628;6.670;2022-07-29T04:11:54;3.20;;;2.90;;
64595;SDS011;51003;51.628;6.670;2022-07-29T04:14:20;7.90;;;3.10;;
64595;SDS011;51003;51.628;6.670;2022-07-29T04:16:45;8.17;;;3.33;;
64595;SDS011;51003;51.628;6.670;2022-07-29T04:19:11;7.87;;;3.63;;
64595;SDS011;51003;51.628;6.670;2022-07-29T04:21:37;4.03;;;3.63;;
64595;SDS011;51003;51.628;6.670;2022-07-29T04:24:03;11.30;;;3.40;;
64595;SDS011;51003;51.628;6.670;2022-07-29T04:26:29;9.23;;;3.63;;
64595;SDS011;51003;51.628;6.670;2022-07-29T04:28:54;5.90;;;3.53;;
64595;SDS011;51003;51.628;6.670;2022-07-29T04:31:20;3.43;;;3.13;;
64595;SDS011;51003;51.628;6.670;2022-07-29T04:33:47;8.77;;;3.97;;
64595;SDS011;51003;51.628;6.670;2022-07-29T04:36:19;9.00;;;4.43;;
64595;SDS011;51003;51.628;6.670;2022-07-29T04:38:44;4.07;;;3.70;;
64595;SDS011;51003;51.628;6.670;2022-07-29T04:41:09;6.10;;;3.90;;
64595;SDS011;51003;51.628;6.670;2022-07-29T04:43:38;4.40;;;4.00;;
64595;SDS011;51003;51.628;6.670;2022-07-29T04:46:03;3.97;;;3.60;;
64595;SDS011;51003;51.628;6.670;2022-07-29T04:48:31;4.20;;;3.80;;
64595;SDS011;51003;51.628;6.670;2022-07-29T04:50:56;4.87;;;4.00;;
64595;SDS011;51003;51.628;6.670;2022-07-29T04:53:22;3.77;;;3.47;;
64595;SDS011;51003;51.628;6.670;2022-07-29T04:55:48;4.60;;;3.63;;
64595;SDS011;51003;51.628;6.670;2022-07-29T04:58:13;4.67;;;3.80;;
64595;SDS011;51003;51.628;6.670;2022-07-29T05:00:41;4.37;;;3.03;;
64595;SDS011;51003;51.628;6.670;2022-07-29T05:03:07;3.90;;;3.50;;
64595;SDS011;51003;51.628;6.670;2022-07-29T05:05:32;4.57;;;3.70;;
64595;SDS011;51003;51.628;6.670;2022-07-29T05:07:58;4.43;;;3.47;;
64595;SDS011;51003;51.628;6.670;2022-07-29T05:10:23;7.10;;;3.80;;
64595;SDS011;51003;51.628;6.670;2022-07-29T05:12:49;4.33;;;3.63;;
64595;SDS011;51003;51.628;6.670;2022-07-29T05:15:15;3.97;;;3.50;;
64595;SDS011;51003;51.628;6.670;2022-07-29T05:17:40;3.43;;;3.13;;
64595;SDS011;51003;51.628;6.670;2022-07-29T05:25:55;4.77;;;3.80;;
64595;SDS011;51003;51.628;6.670;2022-07-29T05:28:20;3.60;;;3.30;;
64595;SDS011;51003;51.628;6.670;2022-07-29T05:30:45;6.90;;;3.77;;
64595;SDS011;51003;51.628;6.670;2022-07-29T05:33:11;4.83;;;3.83;;
64595;SDS011;51003;51.628;6.670;2022-07-29T05:35:36;4.00;;;3.70;;
64595;SDS011;51003;51.628;6.670;2022-07-29T05:38:02;5.70;;;3.90;;
64595;SDS011;51003;51.628;6.670;2022-07-29T05:40:28;3.93;;;3.60;;
64595;SDS011;51003;51.628;6.670;2022-07-29T05:42:53;11.53;;;4.87;;
64595;SDS011;51003;51.628;6.670;2022-07-29T05:45:19;7.97;;;4.70;;
64595;SDS011;51003;51.628;6.670;2022-07-29T05:47:45;6.63;;;3.63;;
64595;SDS011;51003;51.628;6.670;2022-07-29T05:50:10;5.50;;;4.10;;
64595;SDS011;51003;51.628;6.670;2022-07-29T05:52:35;7.00;;;4.53;;
64595;SDS011;51003;51.628;6.670;2022-07-29T05:55:01;6.40;;;4.10;;
64595;SDS011;51003;51.628;6.670;2022-07-29T05:57:29;6.77;;;4.50;;
64595;SDS011;51003;51.628;6.670;2022-07-29T05:59:55;8.57;;;4.30;;
64595;SDS011;51003;51.628;6.670;2022-07-29T06:02:26;6.17;;;4.00;;
64595;SDS011;51003;51.628;6.670;2022-07-29T06:04:52;6.63;;;4.37;;
64595;SDS011;51003;51.628;6.670;2022-07-29T06:07:17;6.57;;;4.03;;
64595;SDS011;51003;51.628;6.670;2022-07-29T06:09:46;4.40;;;4.00;;
64595;SDS011;51003;51.628;6.670;2022-07-29T06:12:13;5.67;;;3.87;;
64595;SDS011;51003;51.628;6.670;2022-07-29T06:14:39;3.90;;;3.50;;
64595;SDS011;51003;51.628;6.670;2022-07-29T06:17:05;7.23;;;4.47;;
64595;SDS011;51003;51.628;6.670;2022-07-29T06:19:30;8.33;;;4.67;;
64595;SDS011;51003;51.628;6.670;2022-07-29T06:21:58;8.50;;;4.17;;
64595;SDS011;51003;51.628;6.670;2022-07-29T06:34:04;5.30;;;4.53;;
64595;SDS011;51003;51.628;6.670;2022-07-29T06:39:51;5.73;;;4.33;;
64595;SDS011;51003;51.628;6.670;2022-07-29T06:42:35;14.50;;;4.53;;
64595;SDS011;51003;51.628;6.670;2022-07-29T06:45:00;5.47;;;4.63;;
64595;SDS011;51003;51.628;6.670;2022-07-29T06:47:26;5.53;;;4.40;;
64595;SDS011;51003;51.628;6.670;2022-07-29T06:49:51;8.47;;;4.53;;
64595;SDS011;51003;51.628;6.670;2022-07-29T06:52:17;4.40;;;4.00;;
64595;SDS011;51003;51.628;6.670;2022-07-29T06:54:43;8.77;;;4.80;;
64595;SDS011;51003;51.628;6.670;2022-07-29T06:57:13;6.10;;;4.60;;
64595;SDS011;51003;51.628;6.670;2022-07-29T06:59:38;8.23;;;5.17;;
64595;SDS011;51003;51.628;6.670;2022-07-29T07:02:03;7.50;;;4.80;;
64595;SDS011;51003;51.628;6.670;2022-07-29T07:04:29;5.37;;;4.40;;
64595;SDS011;51003;51.628;6.670;2022-07-29T07:06:54;7.73;;;4.90;;
64595;SDS011;51003;51.628;6.670;2022-07-29T07:09:20;5.03;;;4.57;;
64595;SDS011;51003;51.628;6.670;2022-07-29T07:11:46;6.17;;;4.53;;
64595;SDS011;51003;51.628;6.670;2022-07-29T07:14:11;4.83;;;4.30;;
64595;SDS011;51003;51.628;6.670;2022-07-29T07:16:36;5.90;;;5.00;;
64595;SDS011;51003;51.628;6.670;2022-07-29T07:19:02;7.80;;;4.90;;
64595;SDS011;51003;51.628;6.670;2022-07-29T07:21:27;5.00;;;4.60;;
64595;SDS011;51003;51.628;6.670;2022-07-29T07:23:53;5.17;;;4.77;;
64595;SDS011;51003;51.628;6.670;2022-07-29T07:26:18;12.70;;;4.97;;
64595;SDS011;51003;51.628;6.670;2022-07-29T07:28:44;7.00;;;4.63;;
64595;SDS011;51003;51.628;6.670;2022-07-29T07:31:09;5.93;;;4.70;;
64595;SDS011;51003;51.628;6.670;2022-07-29T07:33:35;5.63;;;5.03;;
64595;SDS011;51003;51.628;6.670;2022-07-29T07:36:01;6.30;;;4.40;;
64595;SDS011;51003;51.628;6.670;2022-07-29T07:38:26;7.67;;;5.40;;
64595;SDS011;51003;51.628;6.670;2022-07-29T07:40:51;10.90;;;5.90;;
64595;SDS011;51003;51.628;6.670;2022-07-29T07:43:17;14.00;;;6.10;;
64595;SDS011;51003;51.628;6.670;2022-07-29T07:45:42;6.40;;;5.50;;
64595;SDS011;51003;51.628;6.670;2022-07-29T07:48:07;6.20;;;5.60;;
64595;SDS011;51003;51.628;6.670;2022-07-29T07:50:35;6.83;;;5.83;;
64595;SDS011;51003;51.628;6.670;2022-07-29T07:53:00;10.30;;;6.67;;
64595;SDS011;51003;51.628;6.670;2022-07-29T07:55:27;6.33;;;5.70;;
64595;SDS011;51003;51.628;6.670;2022-07-29T07:57:53;8.80;;;6.30;;
64595;SDS011;51003;51.628;6.670;2022-07-29T08:00:19;10.13;;;6.67;;
64595;SDS011;51003;51.628;6.670;2022-07-29T08:02:44;8.90;;;6.40;;
64595;SDS011;51003;51.628;6.670;2022-07-29T08:05:10;9.87;;;6.17;;
64595;SDS011;51003;51.628;6.670;2022-07-29T08:07:37;15.77;;;7.37;;
64595;SDS011;51003;51.628;6.670;2022-07-29T08:10:03;10.10;;;7.27;;
64595;SDS011;51003;51.628;6.670;2022-07-29T08:12:29;11.33;;;7.57;;
64595;SDS011;51003;51.628;6.670;2022-07-29T08:14:54;10.57;;;6.93;;
64595;SDS011;51003;51.628;6.670;2022-07-29T08:17:20;9.03;;;6.73;;
64595;SDS011;51003;51.628;6.670;2022-07-29T08:19:45;9.10;;;6.70;;
64595;SDS011;51003;51.628;6.670;2022-07-29T08:22:12;11.73;;;6.77;;
64595;SDS011;51003;51.628;6.670;2022-07-29T08:24:38;9.97;;;5.70;;
64595;SDS011;51003;51.628;6.670;2022-07-29T08:27:11;6.83;;;6.13;;
64595;SDS011;51003;51.628;6.670;2022-07-29T08:29:37;8.00;;;6.77;;
64595;SDS011;51003;51.628;6.670;2022-07-29T08:32:03;8.30;;;6.67;;
64595;SDS011;51003;51.628;6.670;2022-07-29T08:34:29;8.37;;;6.00;;
64595;SDS011;51003;51.628;6.670;2022-07-29T08:36:55;7.03;;;6.33;;
64595;SDS011;51003;51.628;6.670;2022-07-29T08:39:21;6.63;;;6.00;;
64595;SDS011;51003;51.628;6.670;2022-07-29T08:41:47;7.27;;;6.53;;
64595;SDS011;51003;51.628;6.670;2022-07-29T08:44:13;6.90;;;6.20;;
64595;SDS011;51003;51.628;6.670;2022-07-29T08:46:41;7.90;;;5.53;;
64595;SDS011;51003;51.628;6.670;2022-07-29T08:49:06;7.57;;;5.70;;
64595;SDS011;51003;51.628;6.670;2022-07-29T08:51:32;6.80;;;6.20;;
64595;SDS011;51003;51.628;6.670;2022-07-29T08:54:00;7.87;;;6.17;;
64595;SDS011;51003;51.628;6.670;2022-07-29T08:56:25;8.67;;;6.20;;
64595;SDS011;51003;51.628;6.670;2022-07-29T08:58:51;7.33;;;6.10;;
64595;SDS011;51003;51.628;6.670;2022-07-29T09:01:17;9.03;;;6.57;;
64595;SDS011;51003;51.628;6.670;2022-07-29T09:03:47;8.13;;;6.50;;
64595;SDS011;51003;51.628;6.670;2022-07-29T09:06:13;6.83;;;6.13;;
64595;SDS011;51003;51.628;6.670;2022-07-29T09:08:40;12.53;;;6.53;;
64595;SDS011;51003;51.628;6.670;2022-07-29T09:11:06;8.83;;;6.57;;
64595;SDS011;51003;51.628;6.670;2022-07-29T09:13:32;8.10;;;6.60;;
64595;SDS011;51003;51.628;6.670;2022-07-29T09:15:58;9.50;;;6.47;;
64595;SDS011;51003;51.628;6.670;2022-07-29T09:18:32;7.30;;;6.10;;
64595;SDS011;51003;51.628;6.670;2022-07-29T09:21:02;11.43;;;6.80;;
64595;SDS011;51003;51.628;6.670;2022-07-29T11:04:01;5.50;;;5.10;;
64595;SDS011;51003;51.628;6.670;2022-07-29T11:06:56;5.80;;;5.30;;
64595;SDS011;51003;51.628;6.670;2022-07-29T11:09:30;5.67;;;5.23;;
64595;SDS011;51003;51.628;6.670;2022-07-29T11:11:58;5.80;;;5.20;;
64595;SDS011;51003;51.628;6.670;2022-07-29T11:18:02;5.47;;;4.87;;
64595;SDS011;51003;51.628;6.670;2022-07-29T11:33:32;6.57;;;4.70;;
64595;SDS011;51003;51.628;6.670;2022-07-29T11:36:16;4.57;;;4.23;;
64595;SDS011;51003;51.628;6.670;2022-07-29T11:38:48;4.67;;;4.10;;
64595;SDS011;51003;51.628;6.670;2022-07-29T11:43:46;4.50;;;4.20;;
64595;SDS011;51003;51.628;6.670;2022-07-29T11:46:12;10.73;;;4.00;;
64595;SDS011;51003;51.628;6.670;2022-07-29T11:48:41;7.60;;;4.33;;
64595;SDS011;51003;51.628;6.670;2022-07-29T11:51:10;6.07;;;4.77;;
64595;SDS011;51003;51.628;6.670;2022-07-29T11:53:36;5.70;;;4.13;;
64595;SDS011;51003;51.628;6.670;2022-07-29T11:56:02;4.73;;;4.20;;
64595;SDS011;51003;51.628;6.670;2022-07-29T11:58:29;4.60;;;4.30;;
64595;SDS011;51003;51.628;6.670;2022-07-29T12:00:54;6.70;;;4.50;;
64595;SDS011;51003;51.628;6.670;2022-07-29T12:03:24;7.93;;;4.53;;
64595;SDS011;51003;51.628;6.670;2022-07-29T12:05:51;5.00;;;4.50;;
64595;SDS011;51003;51.628;6.670;2022-07-29T12:08:20;4.90;;;4.10;;
64595;SDS011;51003;51.628;6.670;2022-07-29T12:10:47;5.00;;;4.50;;
64595;SDS011;51003;51.628;6.670;2022-07-29T12:13:14;5.83;;;4.70;;
64595;SDS011;51003;51.628;6.670;2022-07-29T12:15:41;6.17;;;4.50;;
64595;SDS011;51003;51.628;6.670;2022-07-29T12:18:13;5.03;;;4.53;;
64595;SDS011;51003;51.628;6.670;2022-07-29T12:20:40;6.70;;;4.50;;
64595;SDS011;51003;51.628;6.670;2022-07-29T12:23:06;6.43;;;4.67;;
64595;SDS011;51003;51.628;6.670;2022-07-29T12:25:39;5.27;;;4.17;;
64595;SDS011;51003;51.628;6.670;2022-07-29T12:28:07;5.10;;;4.60;;
64595;SDS011;51003;51.628;6.670;2022-07-29T12:33:25;6.90;;;4.57;;
64595;SDS011;51003;51.628;6.670;2022-07-29T12:35:56;4.53;;;4.13;;
64595;SDS011;51003;51.628;6.670;2022-07-29T13:53:57;7.07;;;4.90;;
64595;SDS011;51003;51.628;6.670;2022-07-29T14:16:49;5.53;;;3.93;;
64595;SDS011;51003;51.628;6.670;2022-07-29T15:35:26;4.37;;;3.73;;
64595;SDS011;51003;51.628;6.670;2022-07-29T15:54:26;3.00;;;2.83;;
64595;SDS011;51003;51.628;6.670;2022-07-29T16:00:13;4.87;;;2.70;;
64595;SDS011;51003;51.628;6.670;2022-07-29T16:02:42;2.60;;;2.47;;
64595;SDS011;51003;51.628;6.670;2022-07-29T16:05:08;2.90;;;2.70;;
64595;SDS011;51003;51.628;6.670;2022-07-29T16:07:34;3.13;;;2.60;;
64595;SDS011;51003;51.628;6.670;2022-07-29T16:13:25;2.73;;;2.53;;
64595;SDS011;51003;51.628;6.670;2022-07-29T16:15:50;2.70;;;2.50;;
64595;SDS011;51003;51.628;6.670;2022-07-29T16:38:30;2.93;;;2.70;;
64595;SDS011;51003;51.628;6.670;2022-07-29T17:15:29;5.70;;;2.97;;
64595;SDS011;51003;51.628;6.670;2022-07-29T17:52:16;3.87;;;2.90;;
64595;SDS011;51003;51.628;6.670;2022-07-29T18:01:30;3.33;;;3.03;;
64595;SDS011;51003;51.628;6.670;2022-07-29T18:07:16;4.03;;;3.00;;
64595;SDS011;51003;51.628;6.670;2022-07-29T18:09:43;4.10;;;3.07;;
64595;SDS011;51003;51.628;6.670;2022-07-29T18:12:09;6.03;;;3.10;;
64595;SDS011;51003;51.628;6.670;2022-07-29T18:14:34;4.33;;;3.10;;
64595;SDS011;51003;51.628;6.670;2022-07-29T18:17:00;3.73;;;3.43;;
64595;SDS011;51003;51.628;6.670;2022-07-29T18:19:25;4.40;;;3.37;;
64595;SDS011;51003;51.628;6.670;2022-07-29T18:21:52;6.43;;;3.00;;
64595;SDS011;51003;51.628;6.670;2022-07-29T18:24:18;3.40;;;3.10;;
64595;SDS011;51003;51.628;6.670;2022-07-29T18:26:43;5.20;;;3.43;;
64595;SDS011;51003;51.628;6.670;2022-07-29T18:29:12;6.47;;;3.50;;
64595;SDS011;51003;51.628;6.670;2022-07-29T18:31:38;4.47;;;2.90;;
64595;SDS011;51003;51.628;6.670;2022-07-29T18:34:05;3.90;;;3.50;;
64595;SDS011;51003;51.628;6.670;2022-07-29T18:42:56;3.70;;;3.30;;
64595;SDS011;51003;51.628;6.670;2022-07-29T19:04:40;3.73;;;3.40;;
64595;SDS011;51003;51.628;6.670;2022-07-29T19:07:06;5.37;;;3.73;;
64595;SDS011;51003;51.628;6.670;2022-07-29T19:40:07;5.47;;;4.43;;
64595;SDS011;51003;51.628;6.670;2022-07-29T19:46:04;5.47;;;4.70;;
64595;SDS011;51003;51.628;6.670;2022-07-29T19:48:29;6.67;;;4.23;;
64595;SDS011;51003;51.628;6.670;2022-07-29T19:50:55;6.27;;;4.83;;
64595;SDS011;51003;51.628;6.670;2022-07-29T19:56:54;5.10;;;4.50;;
64595;SDS011;51003;51.628;6.670;2022-07-29T20:05:07;5.43;;;4.87;;
64595;SDS011;51003;51.628;6.670;2022-07-29T20:07:34;6.43;;;4.70;;
64595;SDS011;51003;51.628;6.670;2022-07-29T20:44:35;6.00;;;5.40;;
64595;SDS011;51003;51.628;6.670;2022-07-29T20:47:00;8.73;;;6.00;;
64595;SDS011;51003;51.628;6.670;2022-07-29T20:49:26;11.13;;;6.73;;
64595;SDS011;51003;51.628;6.670;2022-07-29T22:04:50;9.37;;;7.20;;
64595;SDS011;51003;51.628;6.670;2022-07-29T22:07:15;10.90;;;6.50;;
64595;SDS011;51003;51.628;6.670;2022-07-29T22:09:41;10.60;;;7.10;;
64595;SDS011;51003;51.628;6.670;2022-07-29T22:12:06;9.90;;;6.17;;
64595;SDS011;51003;51.628;6.670;2022-07-29T22:14:31;8.43;;;6.47;;
64595;SDS011;51003;51.628;6.670;2022-07-29T22:16:57;8.27;;;6.43;;
64595;SDS011;51003;51.628;6.670;2022-07-29T22:19:22;12.23;;;6.57;;
64595;SDS011;51003;51.628;6.670;2022-07-29T22:21:48;8.50;;;6.57;;
64595;SDS011;51003;51.628;6.670;2022-07-29T22:24:13;7.63;;;5.80;;
64595;SDS011;51003;51.628;6.670;2022-07-29T22:26:39;9.50;;;6.53;;
64595;SDS011;51003;51.628;6.670;2022-07-29T22:29:04;8.37;;;6.03;;
64595;SDS011;51003;51.628;6.670;2022-07-29T22:31:30;8.70;;;6.37;;
64595;SDS011;51003;51.628;6.670;2022-07-29T22:33:56;6.50;;;5.90;;
64595;SDS011;51003;51.628;6.670;2022-07-29T22:36:21;6.90;;;6.00;;
64595;SDS011;51003;51.628;6.670;2022-07-29T22:38:46;8.20;;;6.43;;
64595;SDS011;51003;51.628;6.670;2022-07-29T22:41:12;6.30;;;5.70;;
64595;SDS011;51003;51.628;6.670;2022-07-29T22:43:38;7.50;;;6.37;;
64595;SDS011;51003;51.628;6.670;2022-07-29T22:46:06;6.83;;;6.13;;
64595;SDS011;51003;51.628;6.670;2022-07-29T22:48:32;9.23;;;5.83;;
64595;SDS011;51003;51.628;6.670;2022-07-29T22:50:58;8.47;;;6.57;;
64595;SDS011;51003;51.628;6.670;2022-07-29T22:53:23;8.27;;;6.87;;
64595;SDS011;51003;51.628;6.670;2022-07-29T22:55:48;7.17;;;6.43;;
64595;SDS011;51003;51.628;6.670;2022-07-29T22:58:14;7.83;;;6.40;;
64595;SDS011;51003;51.628;6.670;2022-07-29T23:00:39;24.57;;;6.80;;
64595;SDS011;51003;51.628;6.670;2022-07-29T23:03:05;7.57;;;6.67;;
64595;SDS011;51003;51.628;6.670;2022-07-29T23:05:30;7.87;;;6.37;;
64595;SDS011;51003;51.628;6.670;2022-07-29T23:07:56;8.13;;;6.33;;
64595;SDS011;51003;51.628;6.670;2022-07-29T23:10:22;7.37;;;6.10;;
64595;SDS011;51003;51.628;6.670;2022-07-29T23:12:47;8.33;;;6.70;;
64595;SDS011;51003;51.628;6.670;2022-07-29T23:15:12;8.87;;;6.57;;
64595;SDS011;51003;51.628;6.670;2022-07-29T23:17:38;7.30;;;6.33;;
64595;SDS011;51003;51.628;6.670;2022-07-29T23:20:04;8.80;;;7.13;;
64595;SDS011;51003;51.628;6.670;2022-07-29T23:22:31;12.53;;;6.43;;
64595;SDS011;51003;51.628;6.670;2022-07-29T23:24:56;8.10;;;6.70;;
64595;SDS011;51003;51.628;6.670;2022-07-29T23:27:22;9.30;;;6.90;;
64595;SDS011;51003;51.628;6.670;2022-07-29T23:29:47;10.30;;;6.90;;
64595;SDS011;51003;51.628;6.670;2022-07-29T23:32:12;7.30;;;6.60;;
64595;SDS011;51003;51.628;6.670;2022-07-29T23:34:38;10.43;;;6.77;;
64595;SDS011;51003;51.628;6.670;2022-07-29T23:37:03;9.73;;;7.03;;
64595;SDS011;51003;51.628;6.670;2022-07-29T23:39:29;10.50;;;7.17;;
64595;SDS011;51003;51.628;6.670;2022-07-29T23:41:54;10.63;;;7.13;;
64595;SDS011;51003;51.628;6.670;2022-07-29T23:44:20;7.50;;;6.40;;
64595;SDS011;51003;51.628;6.670;2022-07-29T23:46:45;8.47;;;6.53;;
64595;SDS011;51003;51.628;6.670;2022-07-29T23:49:11;8.23;;;7.27;;
64595;SDS011;51003;51.628;6.670;2022-07-29T23:51:37;12.80;;;7.33;;
64595;SDS011;51003;51.628;6.670;2022-07-29T23:54:02;8.83;;;7.00;;
64595;SDS011;51003;51.628;6.670;2022-07-29T23:56:28;10.10;;;7.47;;
64595;SDS011;51003;51.628;6.670;2022-07-29T23:58:53;10.03;;;7.37;;
